createdAt,value
2019-05-01T00:01:03.824Z,48.28
2019-05-01T00:02:09.848Z,48.43
2019-05-01T00:03:21.964Z,48.52
2019-05-01T00:04:33.644Z,48.63
2019-05-01T00:05:42.425Z,48.77
2019-05-01T00:06:50.944Z,49.00
2019-05-01T00:07:56.197Z,48.97
2019-05-01T00:09:00.445Z,49.01
2019-05-01T00:10:06.875Z,49.00
2019-05-01T00:11:11.349Z,49.08
2019-05-01T00:12:15.528Z,49.27
2019-05-01T00:13:19.828Z,49.18
2019-05-01T00:14:24.009Z,49.22
2019-05-01T00:15:32.337Z,49.07
2019-05-01T00:16:36.529Z,49.00
2019-05-01T00:17:40.973Z,49.14
2019-05-01T00:18:45.374Z,49.05
2019-05-01T00:19:49.622Z,49.00
2019-05-01T00:20:53.909Z,49.08
2019-05-01T00:21:58.129Z,48.85
2019-05-01T00:23:02.386Z,48.79
2019-05-01T00:24:06.618Z,48.93
2019-05-01T00:25:10.874Z,48.89
2019-05-01T00:26:15.197Z,48.86
2019-05-01T00:27:20.551Z,48.95
2019-05-01T00:28:24.910Z,48.81
2019-05-01T00:29:29.417Z,48.84
2019-05-01T00:30:35.314Z,48.97
2019-05-01T00:31:39.565Z,48.95
2019-05-01T00:32:43.939Z,49.13
2019-05-01T00:33:48.224Z,48.97
2019-05-01T00:34:52.658Z,48.84
2019-05-01T00:35:56.912Z,48.84
2019-05-01T00:37:01.181Z,48.98
2019-05-01T00:38:05.710Z,49.07
2019-05-01T00:39:11.560Z,49.20
2019-05-01T00:40:16.182Z,49.18
2019-05-01T00:41:20.433Z,49.24
2019-05-01T00:42:24.612Z,49.22
2019-05-01T00:43:29.226Z,49.28
2019-05-01T00:44:33.715Z,49.18
2019-05-01T00:45:37.969Z,49.22
2019-05-01T00:46:42.226Z,49.08
2019-05-01T00:47:46.483Z,49.10
2019-05-01T00:48:50.886Z,49.11
2019-05-01T00:49:56.176Z,49.35
2019-05-01T00:51:00.489Z,49.41
2019-05-01T00:52:04.765Z,49.54
2019-05-01T00:53:08.954Z,49.41
2019-05-01T00:54:13.248Z,49.56
2019-05-01T00:55:34.289Z,49.80
2019-05-01T00:56:48.700Z,49.70
2019-05-01T00:57:54.531Z,49.64
2019-05-01T00:59:00.412Z,49.65
2019-05-01T01:00:20.630Z,49.61
2019-05-01T01:01:32.202Z,49.54
2019-05-01T01:02:38.028Z,49.77
2019-05-01T01:03:42.212Z,49.90
2019-05-01T01:04:46.596Z,50.08
2019-05-01T01:05:50.988Z,49.98
2019-05-01T01:06:55.243Z,49.93
2019-05-01T01:07:59.632Z,49.98
2019-05-01T01:09:07.615Z,49.91
2019-05-01T01:10:13.465Z,49.91
2019-05-01T01:11:17.646Z,49.97
2019-05-01T01:12:21.921Z,49.97
2019-05-01T01:13:26.108Z,50.04
2019-05-01T01:14:30.498Z,50.05
2019-05-01T01:15:34.670Z,50.05
2019-05-01T01:16:38.969Z,50.06
2019-05-01T01:17:43.178Z,50.06
2019-05-01T01:18:47.548Z,50.12
2019-05-01T01:19:52.661Z,50.11
2019-05-01T01:20:56.846Z,50.18
2019-05-01T01:22:01.185Z,50.17
2019-05-01T01:23:05.385Z,50.06
2019-05-01T01:24:09.570Z,50.24
2019-05-01T01:25:13.825Z,50.20
2019-05-01T01:26:18.346Z,50.02
2019-05-01T01:27:23.350Z,50.03
2019-05-01T01:28:27.557Z,50.14
2019-05-01T01:29:31.822Z,50.16
2019-05-01T01:30:36.001Z,50.13
2019-05-01T01:31:40.249Z,49.86
2019-05-01T01:32:44.543Z,49.71
2019-05-01T01:33:49.694Z,49.74
2019-05-01T01:34:53.949Z,49.54
2019-05-01T01:35:58.175Z,49.66
2019-05-01T01:37:02.527Z,49.68
2019-05-01T01:38:07.598Z,49.63
2019-05-01T01:39:11.825Z,49.53
2019-05-01T01:40:16.213Z,49.61
2019-05-01T01:41:20.399Z,49.75
2019-05-01T01:42:24.716Z,49.80
2019-05-01T01:43:48.709Z,49.74
2019-05-01T01:44:57.230Z,49.84
2019-05-01T01:46:05.605Z,49.75
2019-05-01T01:47:09.952Z,49.88
2019-05-01T01:48:17.655Z,49.91
2019-05-01T01:49:21.901Z,49.95
2019-05-01T01:50:26.080Z,49.97
2019-05-01T01:51:30.348Z,50.04
2019-05-01T01:52:34.593Z,50.14
2019-05-01T01:53:39.117Z,50.05
2019-05-01T01:54:44.567Z,50.20
2019-05-01T01:55:48.772Z,50.21
2019-05-01T01:56:52.959Z,50.39
2019-05-01T01:57:57.281Z,50.39
2019-05-01T01:59:01.516Z,50.40
2019-05-01T02:00:08.499Z,50.48
2019-05-01T02:01:31.342Z,50.49
2019-05-01T02:02:38.389Z,50.45
2019-05-01T02:03:47.300Z,50.50
2019-05-01T02:04:55.892Z,50.36
2019-05-01T02:06:00.321Z,50.38
2019-05-01T02:07:05.381Z,50.51
2019-05-01T02:08:09.690Z,50.53
2019-05-01T02:09:13.927Z,50.64
2019-05-01T02:10:18.334Z,50.67
2019-05-01T02:11:22.669Z,50.75
2019-05-01T02:12:26.853Z,50.81
2019-05-01T02:13:31.262Z,50.78
2019-05-01T02:14:35.445Z,51.01
2019-05-01T02:15:39.726Z,51.00
2019-05-01T02:16:44.876Z,51.03
2019-05-01T02:17:49.049Z,51.04
2019-05-01T02:18:53.628Z,51.09
2019-05-01T02:19:57.874Z,51.12
2019-05-01T02:21:02.059Z,51.16
2019-05-01T02:22:06.774Z,51.33
2019-05-01T02:23:11.025Z,51.42
2019-05-01T02:24:15.207Z,51.49
2019-05-01T02:25:19.665Z,51.43
2019-05-01T02:26:25.627Z,51.74
2019-05-01T02:27:37.040Z,51.74
2019-05-01T02:28:42.873Z,51.64
2019-05-01T02:29:48.683Z,51.84
2019-05-01T02:31:27.185Z,51.66
2019-05-01T02:32:16.380Z,51.65
2019-05-01T02:33:20.687Z,51.61
2019-05-01T02:34:26.195Z,51.67
2019-05-01T02:35:30.611Z,51.68
2019-05-01T02:36:34.811Z,51.84
2019-05-01T02:37:39.069Z,51.71
2019-05-01T02:38:43.499Z,51.95
2019-05-01T02:39:47.745Z,52.24
2019-05-01T02:40:53.681Z,52.20
2019-05-01T02:41:59.346Z,52.24
2019-05-01T02:43:03.505Z,52.19
2019-05-01T02:44:16.694Z,52.25
2019-05-01T02:45:21.413Z,52.03
2019-05-01T02:46:25.848Z,51.98
2019-05-01T02:47:31.996Z,52.02
2019-05-01T02:48:36.393Z,51.91
2019-05-01T02:49:51.926Z,51.96
2019-05-01T02:50:56.964Z,51.95
2019-05-01T02:52:01.967Z,52.02
2019-05-01T02:53:06.144Z,52.02
2019-05-01T02:54:11.184Z,52.18
2019-05-01T02:55:26.022Z,52.17
2019-05-01T02:56:34.542Z,52.31
2019-05-01T02:57:38.728Z,52.35
2019-05-01T02:58:43.589Z,52.61
2019-05-01T02:59:50.089Z,52.60
2019-05-01T03:00:54.273Z,52.59
2019-05-01T03:01:58.805Z,52.53
2019-05-01T03:03:02.989Z,52.52
2019-05-01T03:04:07.206Z,52.74
2019-05-01T03:05:11.423Z,52.70
2019-05-01T03:06:16.821Z,52.65
2019-05-01T03:07:21.162Z,52.60
2019-05-01T03:08:25.578Z,52.61
2019-05-01T03:09:29.816Z,52.62
2019-05-01T03:10:34.468Z,52.60
2019-05-01T03:11:39.346Z,52.63
2019-05-01T03:12:44.151Z,52.56
2019-05-01T03:13:48.358Z,52.50
2019-05-01T03:14:52.552Z,52.53
2019-05-01T03:15:56.742Z,52.67
2019-05-01T03:17:02.194Z,52.80
2019-05-01T03:18:14.695Z,52.76
2019-05-01T03:19:35.619Z,52.96
2019-05-01T03:20:41.507Z,52.87
2019-05-01T03:21:50.820Z,52.91
2019-05-01T03:23:14.731Z,52.94
2019-05-01T03:24:24.476Z,53.17
2019-05-01T03:25:28.704Z,53.30
2019-05-01T03:26:32.893Z,53.20
2019-05-01T03:27:37.163Z,53.23
2019-05-01T03:28:41.365Z,53.17
2019-05-01T03:29:45.552Z,53.19
2019-05-01T03:30:49.840Z,53.16
2019-05-01T03:32:15.968Z,53.37
2019-05-01T03:33:00.029Z,53.29
2019-05-01T03:34:04.945Z,53.23
2019-05-01T03:35:09.101Z,53.12
2019-05-01T03:36:14.254Z,53.09
2019-05-01T03:37:18.435Z,53.12
2019-05-01T03:38:22.640Z,53.08
2019-05-01T03:39:27.241Z,52.97
2019-05-01T03:40:31.565Z,52.95
2019-05-01T03:41:35.755Z,53.22
2019-05-01T03:42:40.013Z,53.35
2019-05-01T03:43:44.267Z,53.29
2019-05-01T03:44:48.476Z,53.18
2019-05-01T03:45:53.032Z,53.27
2019-05-01T03:46:57.204Z,53.24
2019-05-01T03:48:01.392Z,53.14
2019-05-01T03:49:05.579Z,53.00
2019-05-01T03:50:09.762Z,52.85
2019-05-01T03:51:13.990Z,52.96
2019-05-01T03:52:18.160Z,53.07
2019-05-01T03:53:22.694Z,53.36
2019-05-01T03:54:27.053Z,53.15
2019-05-01T03:55:31.356Z,53.04
2019-05-01T03:56:35.573Z,53.14
2019-05-01T03:57:39.727Z,53.15
2019-05-01T03:58:43.972Z,53.41
2019-05-01T03:59:48.190Z,53.55
2019-05-01T04:01:09.053Z,53.52
2019-05-01T04:02:33.968Z,53.55
2019-05-01T04:03:37.180Z,53.77
2019-05-01T04:04:41.418Z,53.85
2019-05-01T04:05:45.737Z,53.89
2019-05-01T04:06:49.943Z,53.98
2019-05-01T04:07:54.123Z,54.08
2019-05-01T04:08:58.316Z,54.38
2019-05-01T04:10:02.563Z,54.25
2019-05-01T04:11:06.826Z,54.24
2019-05-01T04:12:11.034Z,54.11
2019-05-01T04:13:15.365Z,54.12
2019-05-01T04:14:19.800Z,54.28
2019-05-01T04:15:24.003Z,54.30
2019-05-01T04:16:28.291Z,54.22
2019-05-01T04:17:36.624Z,54.22
2019-05-01T04:18:40.850Z,54.36
2019-05-01T04:19:45.111Z,54.29
2019-05-01T04:20:50.000Z,54.42
2019-05-01T04:21:56.919Z,54.72
2019-05-01T04:23:02.338Z,54.65
2019-05-01T04:24:06.575Z,55.01
2019-05-01T04:25:10.748Z,54.89
2019-05-01T04:26:14.937Z,55.11
2019-05-01T04:27:20.753Z,54.94
2019-05-01T04:28:26.661Z,55.35
2019-05-01T04:29:33.532Z,55.20
2019-05-01T04:30:57.570Z,55.23
2019-05-01T04:32:20.286Z,55.26
2019-05-01T04:33:24.540Z,55.18
2019-05-01T04:34:45.364Z,55.15
2019-05-01T04:36:07.594Z,55.09
2019-05-01T04:37:13.436Z,55.10
2019-05-01T04:38:18.970Z,55.52
2019-05-01T04:39:23.510Z,55.39
2019-05-01T04:40:27.731Z,55.55
2019-05-01T04:41:31.932Z,55.66
2019-05-01T04:42:36.195Z,55.71
2019-05-01T04:43:40.363Z,55.59
2019-05-01T04:44:44.693Z,55.54
2019-05-01T04:45:50.340Z,55.54
2019-05-01T04:46:54.527Z,55.73
2019-05-01T04:47:58.892Z,55.41
2019-05-01T04:49:03.073Z,55.22
2019-05-01T04:50:07.280Z,55.17
2019-05-01T04:51:11.493Z,55.49
2019-05-01T04:52:15.823Z,55.51
2019-05-01T04:53:20.018Z,55.55
2019-05-01T04:54:24.201Z,55.61
2019-05-01T04:55:28.403Z,55.56
2019-05-01T04:56:32.615Z,55.72
2019-05-01T04:57:36.945Z,55.69
2019-05-01T04:58:41.130Z,55.65
2019-05-01T04:59:45.392Z,55.64
2019-05-01T05:00:49.621Z,55.43
2019-05-01T05:02:01.561Z,55.59
2019-05-01T05:03:10.375Z,55.55
2019-05-01T05:04:14.993Z,55.62
2019-05-01T05:05:19.295Z,55.63
2019-05-01T05:06:23.601Z,55.57
2019-05-01T05:07:27.807Z,55.63
2019-05-01T05:08:31.996Z,55.91
2019-05-01T05:09:43.181Z,55.65
2019-05-01T05:10:48.542Z,55.84
2019-05-01T05:12:00.416Z,55.69
2019-05-01T05:13:15.907Z,55.79
2019-05-01T05:14:24.675Z,55.67
2019-05-01T05:15:33.174Z,55.95
2019-05-01T05:16:48.280Z,55.88
2019-05-01T05:17:52.581Z,56.05
2019-05-01T05:18:56.799Z,55.98
2019-05-01T05:20:01.190Z,56.07
2019-05-01T05:21:05.438Z,56.20
2019-05-01T05:22:09.604Z,56.06
2019-05-01T05:23:14.760Z,56.17
2019-05-01T05:24:18.979Z,56.22
2019-05-01T05:25:23.158Z,56.19
2019-05-01T05:26:27.341Z,56.29
2019-05-01T05:27:31.593Z,56.13
2019-05-01T05:28:35.950Z,56.05
2019-05-01T05:29:40.231Z,55.90
2019-05-01T05:30:44.953Z,56.03
2019-05-01T05:31:49.301Z,56.17
2019-05-01T05:32:53.693Z,55.99
2019-05-01T05:33:58.136Z,56.21
2019-05-01T05:35:02.392Z,56.32
2019-05-01T05:36:07.032Z,56.25
2019-05-01T05:37:12.853Z,56.43
2019-05-01T05:38:33.648Z,56.33
2019-05-01T05:39:39.502Z,56.23
2019-05-01T05:40:43.778Z,56.17
2019-05-01T05:41:48.105Z,56.16
2019-05-01T05:42:52.322Z,56.06
2019-05-01T05:43:56.805Z,56.13
2019-05-01T05:45:01.213Z,56.11
2019-05-01T05:46:05.476Z,56.09
2019-05-01T05:47:09.732Z,56.07
2019-05-01T05:48:13.930Z,56.09
2019-05-01T05:49:18.140Z,56.12
2019-05-01T05:50:23.964Z,56.15
2019-05-01T05:51:44.865Z,56.18
2019-05-01T05:53:04.471Z,56.31
2019-05-01T05:54:16.179Z,56.14
2019-05-01T05:55:31.174Z,56.14
2019-05-01T05:56:37.204Z,56.31
2019-05-01T05:57:58.238Z,56.60
2019-05-01T05:59:07.626Z,56.90
2019-05-01T06:00:13.501Z,56.96
2019-05-01T06:01:28.526Z,56.92
2019-05-01T06:02:34.393Z,57.01
2019-05-01T06:03:55.467Z,57.16
2019-05-01T06:05:06.100Z,57.30
2019-05-01T06:06:17.698Z,57.45
2019-05-01T06:07:26.485Z,57.78
2019-05-01T06:08:30.788Z,57.92
2019-05-01T06:09:36.705Z,57.78
2019-05-01T06:10:45.536Z,57.62
2019-05-01T06:11:59.952Z,57.58
2019-05-01T06:13:23.098Z,57.08
2019-05-01T06:14:42.249Z,56.92
2019-05-01T06:16:04.151Z,56.73
2019-05-01T06:17:28.900Z,56.97
2019-05-01T06:18:39.281Z,56.67
2019-05-01T06:19:49.300Z,56.12
2019-05-01T06:20:57.207Z,55.71
2019-05-01T06:22:21.463Z,55.70
2019-05-01T06:23:37.229Z,55.83
2019-05-01T06:24:43.059Z,56.46
2019-05-01T06:25:48.894Z,56.55
2019-05-01T06:26:53.122Z,56.43
2019-05-01T06:27:57.425Z,56.42
2019-05-01T06:29:02.445Z,56.23
2019-05-01T06:30:10.994Z,56.24
2019-05-01T06:31:23.115Z,55.95
2019-05-01T06:32:23.889Z,56.48
2019-05-01T06:33:28.033Z,56.51
2019-05-01T06:34:32.251Z,56.37
2019-05-01T06:35:38.078Z,56.33
2019-05-01T06:36:44.311Z,56.04
2019-05-01T06:38:02.183Z,55.75
2019-05-01T06:39:11.879Z,55.59
2019-05-01T06:40:18.778Z,55.51
2019-05-01T06:41:21.352Z,55.55
2019-05-01T06:42:25.472Z,55.49
2019-05-01T06:43:31.545Z,55.53
2019-05-01T06:44:45.821Z,55.04
2019-05-01T06:46:07.912Z,55.03
2019-05-01T06:47:13.757Z,54.64
2019-05-01T06:48:19.594Z,54.17
2019-05-01T06:49:31.297Z,54.93
2019-05-01T06:50:41.428Z,54.56
2019-05-01T06:51:48.074Z,54.58
2019-05-01T06:52:52.640Z,54.65
2019-05-01T06:53:56.685Z,54.00
2019-05-01T06:55:00.901Z,53.33
2019-05-01T06:56:05.080Z,53.00
2019-05-01T06:57:09.269Z,52.65
2019-05-01T06:58:14.779Z,52.89
2019-05-01T06:59:19.473Z,52.34
2019-05-01T07:00:23.697Z,52.22
2019-05-01T07:01:27.948Z,53.15
2019-05-01T07:02:35.126Z,53.02
2019-05-01T07:03:40.823Z,53.56
2019-05-01T07:04:44.190Z,53.12
2019-05-01T07:05:49.158Z,52.88
2019-05-01T07:06:54.462Z,53.01
2019-05-01T07:07:58.708Z,52.80
2019-05-01T07:09:06.958Z,52.95
2019-05-01T07:10:10.412Z,52.48
2019-05-01T07:11:15.603Z,53.05
2019-05-01T07:12:24.009Z,52.68
2019-05-01T07:13:28.033Z,53.13
2019-05-01T07:14:41.037Z,53.08
2019-05-01T07:18:37.427Z,53.38
2019-05-01T07:19:57.520Z,53.03
2019-05-01T07:21:02.344Z,52.89
2019-05-01T07:22:07.479Z,52.87
2019-05-01T07:23:17.497Z,52.88
2019-05-01T07:24:19.027Z,53.10
2019-05-01T07:25:23.210Z,53.07
2019-05-01T07:26:27.399Z,51.83
2019-05-01T07:27:31.633Z,51.86
2019-05-01T07:28:37.000Z,52.15
2019-05-01T07:29:44.875Z,51.97
2019-05-01T07:30:56.292Z,51.62
2019-05-01T07:32:01.700Z,51.39
2019-05-01T07:33:06.578Z,51.75
2019-05-01T07:34:16.785Z,50.58
2019-05-01T07:35:17.004Z,50.39
2019-05-01T07:36:21.317Z,51.31
2019-05-01T07:37:27.593Z,51.52
2019-05-01T07:38:32.882Z,50.49
2019-05-01T07:39:37.374Z,50.41
2019-05-01T07:40:41.555Z,50.31
2019-05-01T07:41:45.840Z,50.49
2019-05-01T07:42:54.569Z,50.42
2019-05-01T07:44:18.988Z,50.07
2019-05-01T07:45:26.591Z,50.77
2019-05-01T07:46:35.097Z,50.00
2019-05-01T07:47:40.951Z,49.96
2019-05-01T07:48:45.228Z,49.36
2019-05-01T07:49:54.987Z,49.46
2019-05-01T07:51:01.848Z,49.25
2019-05-01T07:52:05.118Z,49.01
2019-05-01T07:53:09.326Z,48.87
2019-05-01T07:54:13.623Z,48.57
2019-05-01T07:55:20.079Z,48.63
2019-05-01T07:56:28.012Z,48.12
2019-05-01T07:57:34.239Z,47.60
2019-05-01T07:58:38.350Z,48.19
2019-05-01T07:59:42.536Z,47.94
2019-05-01T08:00:54.165Z,47.71
2019-05-01T08:02:00.002Z,48.04
2019-05-01T08:03:07.162Z,48.25
2019-05-01T08:04:13.820Z,48.31
2019-05-01T08:05:16.354Z,47.60
2019-05-01T08:06:21.859Z,47.46
2019-05-01T08:07:27.735Z,47.57
2019-05-01T08:08:32.334Z,47.07
2019-05-01T08:09:36.533Z,46.97
2019-05-01T08:10:41.081Z,47.45
2019-05-01T08:11:46.022Z,47.70
2019-05-01T08:12:50.237Z,47.59
2019-05-01T08:14:06.599Z,48.02
2019-05-01T08:15:00.297Z,48.07
2019-05-01T08:16:07.242Z,47.87
2019-05-01T08:17:12.748Z,48.33
2019-05-01T08:18:30.982Z,47.22
2019-05-01T08:19:40.723Z,47.42
2019-05-01T08:20:58.660Z,47.15
2019-05-01T08:22:13.892Z,46.93
2019-05-01T08:23:18.105Z,46.49
2019-05-01T08:24:24.430Z,47.05
2019-05-01T08:25:33.106Z,47.25
2019-05-01T08:26:34.739Z,46.72
2019-05-01T08:27:46.428Z,46.54
2019-05-01T08:28:54.951Z,46.33
2019-05-01T08:30:18.598Z,46.20
2019-05-01T08:31:29.003Z,46.49
2019-05-01T08:32:42.171Z,46.35
2019-05-01T08:33:54.007Z,44.86
2019-05-01T08:35:02.160Z,45.09
2019-05-01T08:36:06.785Z,45.23
2019-05-01T08:37:12.246Z,46.07
2019-05-01T08:38:16.435Z,46.20
2019-05-01T08:39:20.640Z,44.77
2019-05-01T08:40:24.892Z,45.33
2019-05-01T08:41:31.835Z,45.09
2019-05-01T08:42:37.747Z,44.94
2019-05-01T08:43:41.145Z,44.10
2019-05-01T08:45:05.115Z,44.78
2019-05-01T08:46:16.531Z,44.54
2019-05-01T08:47:25.790Z,44.27
2019-05-01T08:48:46.686Z,45.76
2019-05-01T08:49:52.597Z,46.03
2019-05-01T08:50:59.220Z,44.83
2019-05-01T08:52:11.225Z,44.50
2019-05-01T08:53:10.965Z,43.85
2019-05-01T08:54:15.222Z,43.60
2019-05-01T08:55:19.417Z,44.08
2019-05-01T08:56:23.946Z,44.31
2019-05-01T08:57:29.209Z,43.55
2019-05-01T08:58:34.163Z,43.52
2019-05-01T08:59:38.482Z,43.74
2019-05-01T09:00:43.269Z,43.71
2019-05-01T09:01:50.633Z,43.41
2019-05-01T09:02:54.017Z,44.36
2019-05-01T09:03:58.366Z,44.65
2019-05-01T09:05:06.834Z,44.68
2019-05-01T09:06:09.189Z,42.98
2019-05-01T09:07:14.745Z,43.00
2019-05-01T09:08:19.858Z,44.09
2019-05-01T09:09:25.077Z,43.24
2019-05-01T09:10:29.343Z,43.88
2019-05-01T09:11:36.271Z,42.94
2019-05-01T09:12:42.583Z,43.14
2019-05-01T09:13:45.944Z,42.71
2019-05-01T09:14:51.274Z,42.17
2019-05-01T09:15:55.998Z,41.55
2019-05-01T09:17:00.683Z,41.50
2019-05-01T09:18:05.038Z,41.80
2019-05-01T09:19:09.462Z,42.09
2019-05-01T09:20:16.591Z,41.98
2019-05-01T09:21:20.214Z,42.41
2019-05-01T09:22:24.520Z,42.66
2019-05-01T09:23:28.774Z,42.59
2019-05-01T09:24:33.164Z,42.20
2019-05-01T09:25:55.129Z,41.68
2019-05-01T09:27:18.671Z,41.62
2019-05-01T09:28:35.957Z,41.70
2019-05-01T09:29:46.916Z,42.98
2019-05-01T09:31:01.283Z,42.18
2019-05-01T09:32:00.419Z,42.07
2019-05-01T09:33:04.988Z,41.47
2019-05-01T09:34:09.614Z,41.65
2019-05-01T09:35:15.797Z,42.65
2019-05-01T09:36:19.824Z,42.23
2019-05-01T09:37:24.107Z,41.47
2019-05-01T09:38:28.531Z,41.70
2019-05-01T09:39:32.831Z,41.80
2019-05-01T09:40:37.104Z,40.50
2019-05-01T09:41:43.111Z,40.90
2019-05-01T09:42:47.652Z,40.90
2019-05-01T09:43:52.953Z,40.94
2019-05-01T09:44:57.393Z,41.42
2019-05-01T09:46:01.835Z,40.71
2019-05-01T09:47:07.499Z,40.82
2019-05-01T09:48:11.847Z,40.37
2019-05-01T09:49:18.223Z,39.49
2019-05-01T09:50:25.949Z,39.49
2019-05-01T09:51:47.542Z,39.56
2019-05-01T09:52:55.271Z,39.51
2019-05-01T09:54:09.894Z,40.32
2019-05-01T09:55:23.038Z,40.29
2019-05-01T09:56:26.468Z,39.64
2019-05-01T09:57:31.093Z,39.57
2019-05-01T09:58:35.295Z,39.22
2019-05-01T09:59:39.549Z,39.63
2019-05-01T10:00:48.763Z,38.79
2019-05-01T10:01:50.791Z,38.56
2019-05-01T10:02:55.042Z,38.42
2019-05-01T10:03:59.377Z,38.95
2019-05-01T10:05:06.753Z,38.76
2019-05-01T10:06:12.821Z,37.88
2019-05-01T10:07:17.472Z,37.42
2019-05-01T10:08:21.950Z,37.00
2019-05-01T10:09:26.936Z,37.41
2019-05-01T10:10:31.273Z,37.93
2019-05-01T10:11:40.687Z,37.85
2019-05-01T10:12:46.868Z,37.49
2019-05-01T10:13:49.373Z,37.71
2019-05-01T10:14:53.756Z,36.54
2019-05-01T10:15:58.266Z,36.10
2019-05-01T10:17:02.563Z,37.18
2019-05-01T10:18:07.030Z,37.69
2019-05-01T10:19:11.354Z,37.65
2019-05-01T10:20:15.822Z,37.67
2019-05-01T10:21:22.406Z,38.12
2019-05-01T10:22:26.302Z,37.42
2019-05-01T10:23:30.725Z,37.15
2019-05-01T10:24:37.757Z,37.16
2019-05-01T10:25:47.426Z,36.93
2019-05-01T10:26:50.328Z,36.88
2019-05-01T10:28:01.841Z,35.21
2019-05-01T10:29:10.582Z,35.61
2019-05-01T10:30:36.282Z,35.91
2019-05-01T10:31:59.346Z,36.18
2019-05-01T10:33:17.778Z,36.02
2019-05-01T10:34:38.612Z,34.58
2019-05-01T10:36:00.078Z,34.40
2019-05-01T10:37:04.844Z,34.00
2019-05-01T10:38:10.749Z,33.65
2019-05-01T10:39:16.098Z,33.55
2019-05-01T10:40:22.431Z,34.26
2019-05-01T10:41:26.830Z,34.18
2019-05-01T10:42:31.259Z,34.34
2019-05-01T10:43:35.541Z,33.13
2019-05-01T10:44:40.042Z,34.07
2019-05-01T10:45:45.930Z,33.44
2019-05-01T10:46:50.253Z,32.71
2019-05-01T10:47:54.617Z,31.35
2019-05-01T10:48:59.003Z,30.62
2019-05-01T10:50:03.820Z,31.22
2019-05-01T10:51:08.201Z,31.31
2019-05-01T10:52:14.345Z,30.64
2019-05-01T10:53:18.667Z,30.95
2019-05-01T10:54:23.827Z,30.86
2019-05-01T10:55:28.494Z,29.50
2019-05-01T10:56:32.861Z,29.62
2019-05-01T10:57:40.240Z,28.91
2019-05-01T10:58:43.218Z,27.99
2019-05-01T10:59:47.636Z,27.43
2019-05-01T11:00:53.498Z,28.35
2019-05-01T11:01:59.322Z,28.08
2019-05-01T11:03:03.504Z,28.63
2019-05-01T11:04:07.767Z,28.16
2019-05-01T11:05:11.948Z,27.89
2019-05-01T11:06:16.299Z,28.31
2019-05-01T11:07:20.505Z,28.64
2019-05-01T11:08:24.857Z,28.94
2019-05-01T11:09:29.197Z,28.83
2019-05-01T11:10:33.408Z,29.37
2019-05-01T11:11:37.648Z,29.41
2019-05-01T11:12:41.779Z,28.67
2019-05-01T11:13:45.972Z,29.20
2019-05-01T11:14:50.498Z,29.25
2019-05-01T11:15:55.935Z,29.86
2019-05-01T11:17:00.191Z,29.77
2019-05-01T11:18:05.064Z,29.80
2019-05-01T11:19:09.468Z,29.68
2019-05-01T11:20:13.747Z,29.61
2019-05-01T11:21:17.972Z,29.70
2019-05-01T11:22:22.258Z,29.98
2019-05-01T11:23:26.617Z,30.19
2019-05-01T11:24:30.805Z,28.60
2019-05-01T11:25:36.340Z,28.34
2019-05-01T11:26:40.700Z,28.26
2019-05-01T11:27:45.082Z,28.88
2019-05-01T11:28:49.329Z,29.19
2019-05-01T11:29:53.510Z,27.96
2019-05-01T11:30:57.842Z,27.25
2019-05-01T11:32:19.964Z,27.18
2019-05-01T11:33:34.303Z,26.67
2019-05-01T11:34:45.864Z,27.18
2019-05-01T11:35:54.241Z,26.96
2019-05-01T11:37:08.780Z,25.43
2019-05-01T11:38:20.727Z,24.45
2019-05-01T11:39:40.275Z,26.02
2019-05-01T11:40:45.297Z,25.46
2019-05-01T11:41:56.922Z,25.78
2019-05-01T11:43:02.800Z,26.53
2019-05-01T11:49:02.648Z,26.06
2019-05-01T11:50:07.044Z,27.60
2019-05-01T11:51:11.222Z,26.93
2019-05-01T11:52:15.604Z,27.33
2019-05-01T11:53:19.806Z,27.53
2019-05-01T11:54:23.997Z,26.89
2019-05-01T11:55:28.227Z,26.55
2019-05-01T11:56:32.415Z,26.64
2019-05-01T11:57:36.808Z,27.63
2019-05-01T11:58:40.988Z,27.01
2019-05-01T11:59:45.188Z,27.26
2019-05-01T12:00:50.465Z,27.72
2019-05-01T12:01:54.715Z,28.00
2019-05-01T12:02:58.954Z,27.60
2019-05-01T12:04:03.256Z,27.81
2019-05-01T12:05:07.508Z,27.03
2019-05-01T12:06:22.326Z,27.90
2019-05-01T12:07:17.760Z,27.15
2019-05-01T12:08:22.090Z,27.95
2019-05-01T12:09:26.271Z,28.02
2019-05-01T12:10:30.674Z,28.10
2019-05-01T12:11:35.925Z,25.71
2019-05-01T12:12:40.202Z,24.93
2019-05-01T12:13:44.508Z,25.29
2019-05-01T12:14:48.806Z,25.98
2019-05-01T12:15:54.622Z,26.84
2019-05-01T12:17:00.473Z,26.36
2019-05-01T12:18:04.763Z,25.75
2019-05-01T12:19:09.016Z,25.87
2019-05-01T12:20:13.773Z,26.60
2019-05-01T12:21:17.947Z,26.48
2019-05-01T12:22:22.161Z,25.83
2019-05-01T12:23:26.364Z,26.11
2019-05-01T12:24:30.766Z,26.15
2019-05-01T12:25:35.242Z,25.04
2019-05-01T12:26:39.420Z,25.80
2019-05-01T12:27:43.947Z,25.72
2019-05-01T12:28:48.131Z,26.13
2019-05-01T12:29:52.479Z,26.34
2019-05-01T12:30:56.648Z,26.62
2019-05-01T12:32:00.928Z,26.82
2019-05-01T12:33:05.097Z,25.43
2019-05-01T12:34:09.278Z,25.65
2019-05-01T12:35:13.624Z,26.54
2019-05-01T12:36:18.040Z,26.23
2019-05-01T12:37:23.851Z,25.64
2019-05-01T12:38:28.386Z,26.05
2019-05-01T12:39:32.636Z,25.57
2019-05-01T12:40:37.127Z,25.75
2019-05-01T12:41:45.703Z,26.14
2019-05-01T12:42:49.890Z,26.69
2019-05-01T12:43:54.213Z,26.88
2019-05-01T12:44:59.651Z,27.01
2019-05-01T12:46:04.642Z,26.46
2019-05-01T12:47:19.383Z,25.93
2019-05-01T12:48:23.829Z,26.68
2019-05-01T12:49:28.080Z,27.04
2019-05-01T12:50:32.312Z,26.83
2019-05-01T12:51:37.352Z,27.01
2019-05-01T12:52:47.464Z,26.71
2019-05-01T12:53:53.295Z,27.15
2019-05-01T12:55:15.004Z,26.83
2019-05-01T12:56:20.864Z,26.52
2019-05-01T12:57:25.054Z,26.69
2019-05-01T12:58:29.397Z,26.87
2019-05-01T12:59:33.540Z,27.02
2019-05-01T13:00:45.189Z,26.32
2019-05-01T13:01:49.360Z,26.57
2019-05-01T13:02:53.662Z,26.19
2019-05-01T13:03:57.944Z,26.27
2019-05-01T13:05:02.135Z,26.15
2019-05-01T13:06:06.329Z,25.83
2019-05-01T13:07:10.517Z,26.21
2019-05-01T13:08:14.732Z,26.05
2019-05-01T13:09:18.919Z,25.65
2019-05-01T13:10:23.089Z,26.57
2019-05-01T13:11:27.385Z,26.66
2019-05-01T13:12:31.552Z,26.04
2019-05-01T13:13:35.863Z,25.88
2019-05-01T13:14:40.026Z,25.52
2019-05-01T13:15:44.201Z,25.22
2019-05-01T13:16:48.382Z,25.22
2019-05-01T13:17:52.638Z,25.04
2019-05-01T13:18:56.841Z,25.30
2019-05-01T13:20:01.095Z,25.04
2019-05-01T13:21:05.280Z,25.86
2019-05-01T13:22:09.460Z,26.40
2019-05-01T13:23:13.766Z,25.57
2019-05-01T13:24:18.135Z,25.04
2019-05-01T13:25:22.330Z,24.85
2019-05-01T13:26:36.949Z,24.68
2019-05-01T13:27:42.773Z,25.71
2019-05-01T13:28:57.397Z,25.97
2019-05-01T13:30:08.908Z,25.56
2019-05-01T13:31:14.814Z,25.45
2019-05-01T13:32:20.649Z,25.56
2019-05-01T13:33:25.010Z,24.71
2019-05-01T13:34:29.194Z,25.11
2019-05-01T13:35:33.465Z,25.40
2019-05-01T13:36:37.937Z,25.56
2019-05-01T13:37:42.109Z,25.41
2019-05-01T13:38:46.427Z,25.00
2019-05-01T13:39:51.678Z,25.18
2019-05-01T13:40:55.872Z,24.74
2019-05-01T13:42:00.204Z,24.74
2019-05-01T13:43:04.388Z,24.07
2019-05-01T13:46:40.200Z,24.36
2019-05-01T13:47:44.485Z,24.26
2019-05-01T13:48:48.651Z,24.37
2019-05-01T13:49:52.904Z,23.84
2019-05-01T13:50:58.149Z,23.70
2019-05-01T13:52:02.347Z,22.87
2019-05-01T13:53:06.647Z,22.87
2019-05-01T13:54:11.317Z,23.07
2019-05-01T13:55:15.571Z,23.35
2019-05-01T13:56:19.885Z,23.93
2019-05-01T13:57:24.201Z,24.29
2019-05-01T13:58:29.502Z,24.46
2019-05-01T13:59:33.677Z,23.46
2019-05-01T14:00:38.047Z,24.69
2019-05-01T14:01:42.225Z,24.34
2019-05-01T14:02:46.474Z,24.71
2019-05-01T14:03:50.651Z,24.81
2019-05-01T14:04:54.934Z,23.69
2019-05-01T14:05:59.234Z,23.62
2019-05-01T14:07:15.903Z,23.51
2019-05-01T14:08:10.198Z,23.84
2019-05-01T14:09:19.233Z,23.67
2019-05-01T14:10:24.116Z,23.86
2019-05-01T14:11:28.320Z,23.84
2019-05-01T14:12:32.490Z,24.01
2019-05-01T14:13:36.721Z,23.49
2019-05-01T14:14:40.958Z,23.11
2019-05-01T14:15:45.354Z,22.81
2019-05-01T14:16:49.629Z,22.49
2019-05-01T14:17:53.828Z,22.47
2019-05-01T14:18:58.041Z,22.52
2019-05-01T14:20:03.997Z,22.56
2019-05-01T14:21:18.887Z,23.06
2019-05-01T14:22:33.595Z,23.64
2019-05-01T14:23:45.240Z,23.70
2019-05-01T14:24:51.044Z,23.03
2019-05-01T14:26:06.188Z,23.35